createdAt,value
2023-03-02T00:00:17.991Z,70.60
2023-03-02T00:05:41.391Z,64.88
2023-03-02T00:10:43.544Z,61.63
2023-03-02T00:15:45.357Z,54.71
2023-03-02T00:20:47.412Z,52.70
2023-03-02T00:25:49.185Z,53.47
2023-03-02T00:30:50.969Z,54.78
2023-03-02T00:35:52.845Z,56.40
2023-03-02T00:40:55.941Z,57.88
2023-03-02T00:45:58.631Z,60.41
2023-03-02T00:51:01.165Z,68.59
2023-03-02T00:56:04.557Z,70.73
2023-03-02T01:01:10.450Z,65.01
2023-03-02T01:06:19.184Z,61.40
2023-03-02T01:11:22.065Z,54.10
2023-03-02T01:16:23.787Z,51.73
2023-03-02T01:21:25.805Z,53.50
2023-03-02T01:26:27.796Z,56.06
2023-03-02T01:31:30.830Z,57.66
2023-03-02T01:36:33.300Z,58.97
2023-03-02T01:41:35.266Z,67.69
2023-03-02T01:46:37.040Z,69.78
2023-03-02T01:51:46.523Z,64.40
2023-03-02T01:56:55.646Z,60.51
2023-03-02T02:02:03.249Z,52.57
2023-03-02T02:07:08.834Z,50.97
2023-03-02T02:12:20.730Z,52.61
2023-03-02T02:17:22.520Z,54.08
2023-03-02T02:23:27.996Z,56.02
2023-03-02T02:29:07.446Z,57.11
2023-03-02T02:34:22.004Z,58.63
2023-03-02T02:39:32.386Z,60.08
2023-03-02T02:44:34.172Z,69.10
2023-03-02T02:49:39.995Z,72.67
2023-03-02T02:54:45.795Z,66.96
2023-03-02T02:59:52.904Z,61.91
2023-03-02T03:05:02.027Z,54.53
2023-03-02T03:10:48.680Z,52.75
2023-03-02T03:15:50.672Z,53.85
2023-03-02T03:20:52.327Z,55.36
2023-03-02T03:25:53.992Z,57.14
2023-03-02T03:30:55.852Z,59.43
2023-03-02T03:35:57.803Z,60.96
2023-03-02T03:40:59.532Z,69.59
2023-03-02T03:46:01.202Z,74.28
2023-03-02T03:51:03.170Z,68.64
2023-03-02T03:56:06.177Z,63.73
2023-03-02T04:01:08.156Z,59.63
2023-03-02T04:06:18.529Z,52.81
2023-03-02T04:11:20.200Z,52.44
2023-03-02T04:16:22.093Z,53.98
2023-03-02T04:21:24.468Z,56.02
2023-03-02T04:26:26.449Z,57.57
2023-03-02T04:31:28.484Z,58.99
2023-03-02T04:36:34.419Z,60.60
2023-03-02T04:41:36.618Z,69.41
2023-03-02T04:46:39.661Z,74.23
2023-03-02T04:51:45.203Z,68.29
2023-03-02T04:56:48.185Z,64.25
2023-03-02T05:01:50.273Z,60.36
2023-03-02T05:06:52.199Z,53.95
2023-03-02T05:11:55.754Z,52.52
2023-03-02T05:16:57.936Z,54.12
2023-03-02T05:21:59.713Z,55.35
2023-03-02T05:27:01.514Z,57.22
2023-03-02T05:32:03.419Z,58.92
2023-03-02T05:37:05.239Z,60.49
2023-03-02T05:42:06.915Z,69.67
2023-03-02T05:47:08.755Z,74.20
2023-03-02T05:52:10.664Z,68.92
2023-03-02T05:57:12.334Z,65.10
2023-03-02T06:02:14.136Z,62.08
2023-03-02T06:07:16.036Z,59.57
2023-03-02T06:12:17.780Z,54.36
2023-03-02T06:17:19.650Z,54.65
2023-03-02T06:22:21.749Z,57.91
2023-03-02T06:27:23.602Z,59.41
2023-03-02T06:32:25.433Z,67.44
2023-03-02T06:37:29.605Z,71.85
2023-03-02T06:42:31.307Z,68.26
2023-03-02T06:47:33.380Z,64.71
2023-03-02T06:52:35.278Z,61.85
2023-03-02T06:57:37.664Z,56.56
2023-03-02T07:02:39.610Z,55.76
2023-03-02T07:07:41.492Z,57.96
2023-03-02T07:12:45.648Z,67.06
2023-03-02T07:17:48.141Z,67.52
2023-03-02T07:22:50.297Z,64.18
2023-03-02T07:27:52.174Z,62.08
2023-03-02T07:32:54.058Z,57.97
2023-03-02T07:37:55.944Z,54.19
2023-03-02T07:42:57.709Z,57.02
2023-03-02T07:47:59.687Z,59.79
2023-03-02T07:53:01.594Z,68.63
2023-03-02T07:58:03.537Z,66.69
2023-03-02T08:03:05.515Z,63.43
2023-03-02T08:08:07.500Z,58.12
2023-03-02T08:13:09.289Z,55.58
2023-03-02T08:18:11.174Z,58.71
2023-03-02T08:23:12.826Z,65.96
2023-03-02T08:28:14.814Z,65.29
2023-03-02T08:33:16.687Z,62.35
2023-03-02T08:38:18.457Z,60.06
2023-03-02T08:43:23.039Z,56.96
2023-03-02T08:48:26.572Z,59.73
2023-03-02T08:53:32.811Z,66.42
2023-03-02T08:58:34.671Z,65.59
2023-03-02T09:03:36.347Z,63.00
2023-03-02T09:08:39.350Z,55.57
2023-03-02T09:13:41.529Z,54.32
2023-03-02T09:18:43.401Z,58.75
2023-03-02T09:23:45.790Z,66.51
2023-03-02T09:28:47.775Z,63.89
2023-03-02T09:33:49.460Z,60.31
2023-03-02T09:38:52.554Z,53.26
2023-03-02T09:44:32.945Z,53.31
2023-03-02T09:50:05.986Z,57.95
2023-03-02T09:55:29.834Z,65.78
2023-03-02T10:00:36.804Z,65.17
2023-03-02T10:05:43.523Z,60.14
2023-03-02T10:11:06.400Z,54.17
2023-03-02T10:16:41.835Z,54.19
2023-03-02T10:21:55.929Z,64.90
2023-03-02T10:27:12.964Z,63.59
2023-03-02T10:32:51.608Z,55.72
2023-03-02T10:38:16.720Z,55.53
2023-03-02T10:43:35.487Z,57.60
2023-03-02T10:48:49.410Z,60.97
2023-03-02T10:54:10.388Z,61.51
2023-03-02T10:59:45.540Z,66.66
2023-03-02T11:04:48.082Z,63.39
2023-03-02T11:10:16.934Z,54.84
2023-03-02T11:15:28.056Z,54.78
2023-03-02T11:20:37.248Z,60.14
2023-03-02T11:25:47.926Z,60.89
2023-03-02T11:30:53.231Z,55.17
2023-03-02T11:36:24.143Z,59.69
2023-03-02T11:41:36.091Z,61.85
2023-03-02T11:46:39.121Z,58.80
2023-03-02T11:51:58.798Z,55.63
2023-03-02T11:57:01.317Z,56.01
2023-03-02T12:02:04.112Z,59.08
2023-03-02T12:07:26.675Z,58.81
2023-03-02T12:12:36.439Z,60.66
2023-03-02T12:17:39.306Z,63.42
2023-03-02T12:22:41.805Z,56.01
2023-03-02T12:27:44.035Z,55.88
2023-03-02T12:33:10.242Z,58.47
2023-03-02T12:38:36.508Z,60.53
2023-03-02T12:44:02.352Z,59.44
2023-03-02T12:49:10.916Z,59.64
2023-03-02T12:54:18.019Z,59.42
2023-03-02T12:59:28.409Z,64.57
2023-03-02T13:04:30.160Z,60.81
2023-03-02T13:09:32.312Z,54.02
2023-03-02T13:14:34.376Z,55.91
2023-03-02T13:19:37.074Z,54.77
2023-03-02T13:24:58.613Z,56.34
2023-03-02T13:30:26.225Z,59.71
2023-03-02T13:35:32.454Z,59.68
2023-03-02T13:40:42.173Z,58.89
2023-03-02T13:45:56.959Z,60.38
2023-03-02T13:51:20.504Z,60.12
2023-03-02T13:56:40.002Z,61.24
2023-03-02T14:01:43.537Z,60.73
2023-03-02T14:06:46.109Z,60.96
2023-03-02T14:11:55.094Z,60.14
2023-03-02T14:16:57.020Z,59.27
2023-03-02T14:21:58.787Z,58.43
2023-03-02T14:27:00.567Z,58.55
2023-03-02T14:32:04.148Z,57.71
2023-03-02T14:37:11.974Z,58.48
2023-03-02T14:42:19.770Z,57.50
2023-03-02T14:47:21.647Z,57.41
2023-03-02T14:52:44.980Z,57.59
2023-03-02T14:57:56.909Z,58.76
2023-03-02T15:02:59.176Z,59.56
2023-03-02T15:08:01.070Z,60.78
2023-03-02T15:13:02.933Z,61.30
2023-03-02T15:18:05.137Z,61.25
2023-03-02T15:23:07.505Z,62.06
2023-03-02T15:28:10.225Z,61.69
2023-03-02T15:33:12.187Z,61.90
2023-03-02T15:38:13.954Z,61.85
2023-03-02T15:43:15.670Z,61.43
2023-03-02T15:48:17.525Z,61.82
2023-03-02T15:53:19.249Z,64.46
2023-03-02T15:58:22.091Z,67.59
2023-03-02T16:03:24.365Z,63.74
2023-03-02T16:08:26.975Z,54.83
2023-03-02T16:13:30.173Z,51.53
2023-03-02T16:18:32.769Z,53.41
2023-03-02T16:23:34.549Z,54.28
2023-03-02T16:28:37.039Z,55.47
2023-03-02T16:33:40.912Z,56.88
2023-03-02T16:38:42.832Z,58.28
2023-03-02T16:43:54.648Z,59.25
2023-03-02T16:48:57.878Z,60.22
2023-03-02T16:54:00.773Z,60.84
2023-03-02T16:59:02.656Z,68.58
2023-03-02T17:04:05.932Z,70.26
2023-03-02T17:09:07.929Z,63.85
2023-03-02T17:14:10.831Z,55.17
2023-03-02T17:19:12.930Z,52.25
2023-03-02T17:24:14.783Z,53.43
2023-03-02T17:29:16.458Z,54.71
2023-03-02T17:34:18.255Z,55.98
2023-03-02T17:39:20.006Z,57.52
2023-03-02T17:44:27.375Z,58.89
2023-03-02T17:49:30.524Z,60.02
2023-03-02T17:54:32.517Z,60.91
2023-03-02T17:59:34.582Z,69.23
2023-03-02T18:04:36.273Z,72.11
2023-03-02T18:09:38.442Z,65.62
2023-03-02T18:14:42.276Z,60.50
2023-03-02T18:19:45.188Z,52.96
2023-03-02T18:24:47.351Z,51.75
2023-03-02T18:29:49.325Z,53.41
2023-03-02T18:34:51.309Z,55.42
2023-03-02T18:39:53.195Z,57.16
2023-03-02T18:44:55.058Z,58.27
2023-03-02T18:49:58.084Z,59.74
2023-03-02T18:54:59.878Z,60.91
2023-03-02T19:00:10.125Z,69.31
2023-03-02T19:05:12.095Z,72.62
2023-03-02T19:10:15.717Z,66.24
2023-03-02T19:15:17.703Z,60.92
2023-03-02T19:20:20.911Z,53.48
2023-03-02T19:25:23.910Z,52.07
2023-03-02T19:30:27.014Z,53.71
2023-03-02T19:35:30.054Z,54.97
2023-03-02T19:40:34.050Z,56.97
2023-03-02T19:45:37.196Z,58.57
2023-03-02T19:50:39.966Z,59.37
2023-03-02T19:55:42.345Z,60.90
2023-03-02T20:00:46.486Z,69.15
2023-03-02T20:05:48.654Z,73.21
2023-03-02T20:10:51.151Z,67.87
2023-03-02T20:15:53.340Z,62.84
2023-03-02T20:20:55.516Z,54.89
2023-03-02T20:25:57.701Z,53.15
2023-03-02T20:31:08.358Z,54.26
2023-03-02T20:36:14.079Z,55.57
2023-03-02T20:41:17.976Z,57.35
2023-03-02T20:46:28.655Z,58.80
2023-03-02T20:51:30.945Z,60.14
2023-03-02T20:56:33.542Z,67.94
2023-03-02T21:01:35.757Z,72.89
2023-03-02T21:06:38.325Z,67.68
2023-03-02T21:11:41.036Z,63.71
2023-03-02T21:16:45.718Z,60.72
2023-03-02T21:21:47.531Z,53.96
2023-03-02T21:26:53.049Z,52.24
2023-03-02T21:31:55.070Z,53.77
2023-03-02T21:36:57.360Z,55.45
2023-03-02T21:41:59.758Z,56.64
2023-03-02T21:47:01.537Z,58.14
2023-03-02T21:52:03.731Z,59.02
2023-03-02T21:57:07.737Z,60.50
2023-03-02T22:02:11.561Z,70.56
2023-03-02T22:07:13.339Z,73.59
2023-03-02T22:12:16.552Z,65.54
2023-03-02T22:17:22.438Z,60.77
2023-03-02T22:22:29.460Z,52.35
2023-03-02T22:27:34.182Z,51.94
2023-03-02T22:32:38.261Z,53.74
2023-03-02T22:37:40.069Z,55.34
2023-03-02T22:42:41.951Z,56.98
2023-03-02T22:47:48.745Z,58.07
2023-03-02T22:52:52.363Z,59.20
2023-03-02T22:57:54.316Z,60.85
2023-03-02T23:02:57.047Z,69.33
2023-03-02T23:08:20.113Z,73.73
2023-03-02T23:13:27.937Z,66.70
2023-03-02T23:18:32.577Z,61.85
2023-03-02T23:23:34.563Z,53.43
2023-03-02T23:28:36.325Z,52.17
2023-03-02T23:33:38.313Z,53.32
2023-03-02T23:38:40.703Z,54.90
2023-03-02T23:43:42.775Z,56.48
2023-03-02T23:48:44.576Z,58.02
2023-03-02T23:53:46.732Z,59.28
2023-03-02T23:58:48.820Z,60.32
